sensor_id;sensor_type;location;lat;lon;timestamp;pressure;altitude;pressure_sealevel;temperature;humidity
48796;BME280;34607;48.520;-1.330;2023-12-20T07:59:33;101312.31;;;8.16;100.00
48796;BME280;34607;48.520;-1.330;2023-12-20T08:02:02;101308.25;;;8.22;100.00
48796;BME280;34607;48.520;-1.330;2023-12-20T08:04:29;101323.88;;;8.25;100.00
48796;BME280;34607;48.520;-1.330;2023-12-20T08:06:56;101323.88;;;8.25;100.00
48796;BME280;34607;48.520;-1.330;2023-12-20T08:09:23;101330.88;;;8.28;100.00
48796;BME280;34607;48.520;-1.330;2023-12-20T08:11:50;101331.69;;;8.27;100.00
48796;BME280;34607;48.520;-1.330;2023-12-20T08:14:17;101341.13;;;8.27;100.00
48796;BME280;34607;48.520;-1.330;2023-12-20T08:16:45;101341.13;;;8.27;100.00
48796;BME280;34607;48.520;-1.330;2023-12-20T08:19:12;101342.94;;;8.29;100.00
48796;BME280;34607;48.520;-1.330;2023-12-20T08:21:39;101345.44;;;8.28;100.00
48796;BME280;34607;48.520;-1.330;2023-12-20T08:24:07;101347.28;;;8.30;100.00
48796;BME280;34607;48.520;-1.330;2023-12-20T08:26:34;101347.16;;;8.27;100.00
48796;BME280;34607;48.520;-1.330;2023-12-20T08:29:02;101348.88;;;8.27;100.00
48796;BME280;34607;48.520;-1.330;2023-12-20T08:31:29;101341.88;;;8.24;100.00
48796;BME280;34607;48.520;-1.330;2023-12-20T08:33:57;101341.94;;;8.25;100.00
48796;BME280;34607;48.520;-1.330;2023-12-20T08:36:25;101347.03;;;8.24;100.00
48796;BME280;34607;48.520;-1.330;2023-12-20T08:38:52;101348.75;;;8.23;100.00
48796;BME280;34607;48.520;-1.330;2023-12-20T08:41:20;101350.44;;;8.23;100.00
48796;BME280;34607;48.520;-1.330;2023-12-20T08:43:48;101345.41;;;8.26;100.00
48796;BME280;34607;48.520;-1.330;2023-12-20T08:46:15;101342.06;;;8.29;100.00
48796;BME280;34607;48.520;-1.330;2023-12-20T08:48:42;101341.44;;;8.34;100.00
48796;BME280;34607;48.520;-1.330;2023-12-20T08:51:12;101333.81;;;8.37;100.00
48796;BME280;34607;48.520;-1.330;2023-12-20T08:53:40;101352.03;;;8.40;100.00
48796;BME280;34607;48.520;-1.330;2023-12-20T08:56:07;101355.47;;;8.41;100.00
48796;BME280;34607;48.520;-1.330;2023-12-20T08:58:34;101353.81;;;8.41;100.00
48796;BME280;34607;48.520;-1.330;2023-12-20T09:01:03;101356.25;;;8.38;100.00
48796;BME280;34607;48.520;-1.330;2023-12-20T09:03:30;101347.56;;;8.36;100.00
48796;BME280;34607;48.520;-1.330;2023-12-20T09:05:57;101354.47;;;8.37;100.00
48796;BME280;34607;48.520;-1.330;2023-12-20T09:08:25;101354.47;;;8.37;100.00
48796;BME280;34607;48.520;-1.330;2023-12-20T09:10:52;101346.72;;;8.37;100.00
48796;BME280;34607;48.520;-1.330;2023-12-20T09:13:19;101330.69;;;8.44;100.00
48796;BME280;34607;48.520;-1.330;2023-12-20T09:15:47;101330.44;;;8.59;100.00
48796;BME280;34607;48.520;-1.330;2023-12-20T09:18:14;101325.03;;;8.74;100.00
48796;BME280;34607;48.520;-1.330;2023-12-20T09:20:41;101314.16;;;8.83;100.00
48796;BME280;34607;48.520;-1.330;2023-12-20T09:23:08;101327.38;;;8.91;100.00
48796;BME280;34607;48.520;-1.330;2023-12-20T09:25:37;101328.34;;;8.93;100.00
48796;BME280;34607;48.520;-1.330;2023-12-20T09:28:04;101324.03;;;8.93;100.00
48796;BME280;34607;48.520;-1.330;2023-12-20T09:30:31;101332.66;;;8.94;100.00
48796;BME280;34607;48.520;-1.330;2023-12-20T09:32:58;101332.66;;;8.94;100.00
48796;BME280;34607;48.520;-1.330;2023-12-20T09:35:25;101330.19;;;8.97;100.00
48796;BME280;34607;48.520;-1.330;2023-12-20T09:37:52;101320.69;;;8.96;100.00
48796;BME280;34607;48.520;-1.330;2023-12-20T09:40:20;101334.44;;;8.95;100.00
48796;BME280;34607;48.520;-1.330;2023-12-20T09:42:56;101342.25;;;8.96;100.00
48796;BME280;34607;48.520;-1.330;2023-12-20T09:45:24;101313.97;;;8.78;100.00
48796;BME280;34607;48.520;-1.330;2023-12-20T09:47:53;101343.84;;;8.93;100.00
48796;BME280;34607;48.520;-1.330;2023-12-20T09:50:21;101350.63;;;8.91;100.00
48796;BME280;34607;48.520;-1.330;2023-12-20T09:52:50;101337.59;;;8.88;100.00
48796;BME280;34607;48.520;-1.330;2023-12-20T09:55:17;101343.00;;;8.94;100.00
48796;BME280;34607;48.520;-1.330;2023-12-20T09:57:45;101343.94;;;8.96;100.00
48796;BME280;34607;48.520;-1.330;2023-12-20T10:00:14;101346.88;;;9.05;100.00
48796;BME280;34607;48.520;-1.330;2023-12-20T10:02:49;101360.03;;;9.11;100.00
48796;BME280;34607;48.520;-1.330;2023-12-20T10:05:17;101355.81;;;9.13;100.00
48796;BME280;34607;48.520;-1.330;2023-12-20T10:07:46;101360.25;;;9.17;100.00
48796;BME280;34607;48.520;-1.330;2023-12-20T10:10:14;101363.84;;;9.21;100.00
48796;BME280;34607;48.520;-1.330;2023-12-20T10:13:01;101363.84;;;9.21;100.00
48796;BME280;34607;48.520;-1.330;2023-12-20T10:15:30;101373.00;;;9.35;100.00
48796;BME280;34607;48.520;-1.330;2023-12-20T10:17:57;101374.66;;;9.33;100.00
48796;BME280;34607;48.520;-1.330;2023-12-20T10:20:24;101363.31;;;9.30;100.00
48796;BME280;34607;48.520;-1.330;2023-12-20T10:22:52;101366.63;;;9.26;100.00
48796;BME280;34607;48.520;-1.330;2023-12-20T10:25:20;101362.31;;;9.26;100.00
48796;BME280;34607;48.520;-1.330;2023-12-20T10:27:47;101355.66;;;9.55;100.00
48796;BME280;34607;48.520;-1.330;2023-12-20T10:30:16;101340.34;;;9.86;100.00
48796;BME280;34607;48.520;-1.330;2023-12-20T10:32:49;101346.22;;;9.82;100.00
48796;BME280;34607;48.520;-1.330;2023-12-20T10:35:16;101335.72;;;10.01;100.00
48796;BME280;34607;48.520;-1.330;2023-12-20T10:37:43;101318.72;;;10.34;100.00
48796;BME280;34607;48.520;-1.330;2023-12-20T10:40:12;101326.25;;;10.53;100.00
48796;BME280;34607;48.520;-1.330;2023-12-20T10:42:40;101324.25;;;10.44;100.00
48796;BME280;34607;48.520;-1.330;2023-12-20T10:45:08;101320.50;;;10.36;100.00
48796;BME280;34607;48.520;-1.330;2023-12-20T10:47:36;101326.94;;;10.47;100.00
48796;BME280;34607;48.520;-1.330;2023-12-20T10:50:07;101329.69;;;10.52;100.00
48796;BME280;34607;48.520;-1.330;2023-12-20T10:52:35;101331.63;;;10.59;100.00
48796;BME280;34607;48.520;-1.330;2023-12-20T10:55:03;101326.72;;;10.68;100.00
48796;BME280;34607;48.520;-1.330;2023-12-20T10:57:30;101324.09;;;10.67;100.00
48796;BME280;34607;48.520;-1.330;2023-12-20T11:00:01;101326.25;;;10.53;100.00
48796;BME280;34607;48.520;-1.330;2023-12-20T11:02:32;101323.38;;;10.44;100.00
48796;BME280;34607;48.520;-1.330;2023-12-20T11:05:06;101327.09;;;10.28;100.00
48796;BME280;34607;48.520;-1.330;2023-12-20T11:07:39;101321.63;;;10.19;100.00
48796;BME280;34607;48.520;-1.330;2023-12-20T11:10:14;101314.34;;;10.07;100.00
48796;BME280;34607;48.520;-1.330;2023-12-20T11:12:47;101303.78;;;10.01;100.00
48796;BME280;34607;48.520;-1.330;2023-12-20T11:15:16;101309.00;;;10.02;100.00
48796;BME280;34607;48.520;-1.330;2023-12-20T11:17:44;101319.09;;;10.20;100.00
48796;BME280;34607;48.520;-1.330;2023-12-20T11:20:13;101305.88;;;10.37;100.00
48796;BME280;34607;48.520;-1.330;2023-12-20T11:22:52;101312.22;;;10.46;100.00
48796;BME280;34607;48.520;-1.330;2023-12-20T11:25:19;101304.97;;;10.36;100.00
48796;BME280;34607;48.520;-1.330;2023-12-20T11:28:07;101313.56;;;10.09;100.00
48796;BME280;34607;48.520;-1.330;2023-12-20T11:30:41;101302.84;;;9.99;100.00
48796;BME280;34607;48.520;-1.330;2023-12-20T11:33:08;101295.91;;;9.98;100.00
48796;BME280;34607;48.520;-1.330;2023-12-20T11:35:36;101293.53;;;10.04;100.00
48796;BME280;34607;48.520;-1.330;2023-12-20T11:38:07;101292.88;;;10.09;100.00
48796;BME280;34607;48.520;-1.330;2023-12-20T11:40:35;101284.16;;;10.07;100.00
48796;BME280;34607;48.520;-1.330;2023-12-20T11:43:03;101280.75;;;10.08;100.00
48796;BME280;34607;48.520;-1.330;2023-12-20T11:45:30;101276.44;;;10.09;100.00
48796;BME280;34607;48.520;-1.330;2023-12-20T11:47:58;101282.53;;;10.09;100.00
48796;BME280;34607;48.520;-1.330;2023-12-20T11:50:25;101266.53;;;10.21;100.00
48796;BME280;34607;48.520;-1.330;2023-12-20T11:52:54;101264.81;;;10.22;100.00
48796;BME280;34607;48.520;-1.330;2023-12-20T11:55:21;101255.31;;;10.22;100.00
48796;BME280;34607;48.520;-1.330;2023-12-20T11:57:49;101271.75;;;10.24;100.00
48796;BME280;34607;48.520;-1.330;2023-12-20T12:00:18;101259.41;;;10.16;100.00
48796;BME280;34607;48.520;-1.330;2023-12-20T12:02:55;101253.88;;;10.05;100.00
48796;BME280;34607;48.520;-1.330;2023-12-20T12:05:22;101248.81;;;10.08;100.00
48796;BME280;34607;48.520;-1.330;2023-12-20T12:07:49;101240.16;;;10.07;100.00
48796;BME280;34607;48.520;-1.330;2023-12-20T12:10:18;101243.44;;;10.02;100.00
48796;BME280;34607;48.520;-1.330;2023-12-20T12:12:45;101236.41;;;9.98;100.00
48796;BME280;34607;48.520;-1.330;2023-12-20T12:15:12;101233.94;;;10.01;100.00
48796;BME280;34607;48.520;-1.330;2023-12-20T12:17:39;101227.03;;;10.01;100.00
48796;BME280;34607;48.520;-1.330;2023-12-20T12:20:07;101229.78;;;10.06;100.00
48796;BME280;34607;48.520;-1.330;2023-12-20T12:22:35;101231.00;;;10.17;100.00
48796;BME280;34607;48.520;-1.330;2023-12-20T12:25:10;101221.94;;;10.30;100.00
48796;BME280;34607;48.520;-1.330;2023-12-20T12:27:41;101210.97;;;10.37;100.00
48796;BME280;34607;48.520;-1.330;2023-12-20T12:30:09;101218.88;;;10.42;100.00
48796;BME280;34607;48.520;-1.330;2023-12-20T12:32:38;101202.38;;;10.40;100.00
48796;BME280;34607;48.520;-1.330;2023-12-20T12:35:07;101210.84;;;10.34;100.00
48796;BME280;34607;48.520;-1.330;2023-12-20T12:37:38;101209.59;;;10.23;100.00
48796;BME280;34607;48.520;-1.330;2023-12-20T12:40:06;101207.75;;;10.19;100.00
48796;BME280;34607;48.520;-1.330;2023-12-20T12:42:33;101205.91;;;10.15;100.00
48796;BME280;34607;48.520;-1.330;2023-12-20T12:45:02;101199.50;;;10.03;100.00
48796;BME280;34607;48.520;-1.330;2023-12-20T12:47:30;101198.41;;;9.97;100.00
48796;BME280;34607;48.520;-1.330;2023-12-20T12:49:57;101196.56;;;9.92;100.00
48796;BME280;34607;48.520;-1.330;2023-12-20T12:52:24;101194.00;;;9.92;100.00
48796;BME280;34607;48.520;-1.330;2023-12-20T12:54:52;101204.44;;;9.96;100.00
48796;BME280;34607;48.520;-1.330;2023-12-20T12:57:19;101194.97;;;9.96;100.00
48796;BME280;34607;48.520;-1.330;2023-12-20T12:59:46;101189.94;;;10.01;100.00
48796;BME280;34607;48.520;-1.330;2023-12-20T13:02:15;101183.88;;;10.00;100.00
48796;BME280;34607;48.520;-1.330;2023-12-20T13:04:43;101165.16;;;9.82;100.00
48796;BME280;34607;48.520;-1.330;2023-12-20T13:07:10;101179.91;;;9.84;100.00
48796;BME280;34607;48.520;-1.330;2023-12-20T13:09:37;101181.16;;;9.96;100.00
48796;BME280;34607;48.520;-1.330;2023-12-20T13:12:05;101184.56;;;9.94;100.00
48796;BME280;34607;48.520;-1.330;2023-12-20T13:14:33;101185.31;;;9.92;100.00
48796;BME280;34607;48.520;-1.330;2023-12-20T13:17:00;101188.88;;;9.94;100.00
48796;BME280;34607;48.520;-1.330;2023-12-20T13:19:30;101177.72;;;9.97;100.00
48796;BME280;34607;48.520;-1.330;2023-12-20T13:21:58;101183.75;;;9.97;100.00
48796;BME280;34607;48.520;-1.330;2023-12-20T13:24:25;101177.78;;;9.98;100.00
48796;BME280;34607;48.520;-1.330;2023-12-20T13:26:52;101159.91;;;10.06;100.00
48796;BME280;34607;48.520;-1.330;2023-12-20T13:29:19;101160.94;;;10.11;100.00
48796;BME280;34607;48.520;-1.330;2023-12-20T13:31:46;101154.19;;;10.16;100.00
48796;BME280;34607;48.520;-1.330;2023-12-20T13:34:13;101138.56;;;10.13;100.00
48796;BME280;34607;48.520;-1.330;2023-12-20T13:36:42;101133.41;;;10.13;100.00
48796;BME280;34607;48.520;-1.330;2023-12-20T13:39:11;101119.59;;;10.14;100.00
48796;BME280;34607;48.520;-1.330;2023-12-20T13:41:38;101118.03;;;10.19;100.00
48796;BME280;34607;48.520;-1.330;2023-12-20T13:44:05;101118.97;;;10.21;100.00
48796;BME280;34607;48.520;-1.330;2023-12-20T13:46:33;101123.31;;;10.22;100.00
48796;BME280;34607;48.520;-1.330;2023-12-20T13:49:00;101119.66;;;10.16;100.00
48796;BME280;34607;48.520;-1.330;2023-12-20T13:51:27;101119.66;;;10.16;100.00
48796;BME280;34607;48.520;-1.330;2023-12-20T13:53:56;101110.19;;;10.16;100.00
48796;BME280;34607;48.520;-1.330;2023-12-20T13:56:23;101090.28;;;10.13;100.00
48796;BME280;34607;48.520;-1.330;2023-12-20T13:58:50;101079.97;;;10.15;100.00
48796;BME280;34607;48.520;-1.330;2023-12-20T14:01:17;101070.53;;;10.17;100.00
48796;BME280;34607;48.520;-1.330;2023-12-20T14:03:44;101061.03;;;10.18;100.00
48796;BME280;34607;48.520;-1.330;2023-12-20T14:06:11;101067.94;;;10.17;100.00
48796;BME280;34607;48.520;-1.330;2023-12-20T14:08:39;101053.25;;;10.16;100.00
48796;BME280;34607;48.520;-1.330;2023-12-20T14:11:08;101053.47;;;10.24;100.00
48796;BME280;34607;48.520;-1.330;2023-12-20T14:13:36;101029.97;;;10.16;100.00
48796;BME280;34607;48.520;-1.330;2023-12-20T14:16:03;101056.34;;;10.32;100.00
48796;BME280;34607;48.520;-1.330;2023-12-20T14:18:30;101059.88;;;10.35;100.00
48796;BME280;34607;48.520;-1.330;2023-12-20T14:20:57;101059.03;;;10.36;100.00
48796;BME280;34607;48.520;-1.330;2023-12-20T14:23:24;101056.41;;;10.35;100.00
48796;BME280;34607;48.520;-1.330;2023-12-20T14:25:51;101052.88;;;10.33;100.00
48796;BME280;34607;48.520;-1.330;2023-12-20T14:28:20;101051.84;;;10.27;100.00
48796;BME280;34607;48.520;-1.330;2023-12-20T14:30:47;101048.34;;;10.25;100.00
48796;BME280;34607;48.520;-1.330;2023-12-20T14:33:14;101054.38;;;10.26;100.00
48796;BME280;34607;48.520;-1.330;2023-12-20T14:35:41;101061.13;;;10.21;100.00
48796;BME280;34607;48.520;-1.330;2023-12-20T14:38:10;101062.75;;;10.17;100.00
48796;BME280;34607;48.520;-1.330;2023-12-20T14:40:38;101053.63;;;10.00;100.00
48796;BME280;34607;48.520;-1.330;2023-12-20T14:43:06;101047.53;;;9.98;100.00
48796;BME280;34607;48.520;-1.330;2023-12-20T14:45:34;101047.75;;;10.05;100.00
48796;BME280;34607;48.520;-1.330;2023-12-20T14:48:01;101025.44;;;10.09;100.00
48796;BME280;34607;48.520;-1.330;2023-12-20T14:50:28;101026.38;;;10.11;100.00
48796;BME280;34607;48.520;-1.330;2023-12-20T14:52:55;101024.59;;;10.10;100.00
48796;BME280;34607;48.520;-1.330;2023-12-20T14:55:23;101023.78;;;10.11;100.00
48796;BME280;34607;48.520;-1.330;2023-12-20T14:57:52;101021.09;;;10.08;100.00
48796;BME280;34607;48.520;-1.330;2023-12-20T15:00:19;101024.50;;;10.07;100.00
48796;BME280;34607;48.520;-1.330;2023-12-20T15:02:49;101034.75;;;10.04;100.00
48796;BME280;34607;48.520;-1.330;2023-12-20T15:05:16;101032.84;;;9.97;100.00
48796;BME280;34607;48.520;-1.330;2023-12-20T15:07:43;101031.88;;;9.93;100.00
48796;BME280;34607;48.520;-1.330;2023-12-20T15:10:10;101028.47;;;9.94;100.00
48796;BME280;34607;48.520;-1.330;2023-12-20T15:12:37;101020.47;;;9.86;100.00
48796;BME280;34607;48.520;-1.330;2023-12-20T15:15:05;101032.75;;;9.93;100.00
48796;BME280;34607;48.520;-1.330;2023-12-20T15:17:33;101028.41;;;9.92;100.00
48796;BME280;34607;48.520;-1.330;2023-12-20T15:20:03;101023.09;;;9.88;100.00
48796;BME280;34607;48.520;-1.330;2023-12-20T15:22:31;101028.41;;;9.92;100.00
48796;BME280;34607;48.520;-1.330;2023-12-20T15:24:59;101018.94;;;9.93;100.00
48796;BME280;34607;48.520;-1.330;2023-12-20T15:27:27;101023.34;;;9.96;100.00
48796;BME280;34607;48.520;-1.330;2023-12-20T15:29:54;101029.34;;;9.94;100.00
48796;BME280;34607;48.520;-1.330;2023-12-20T15:32:21;101027.56;;;9.93;100.00
48796;BME280;34607;48.520;-1.330;2023-12-20T15:34:48;101021.56;;;9.94;100.00
48796;BME280;34607;48.520;-1.330;2023-12-20T15:37:17;101013.06;;;9.99;100.00
48796;BME280;34607;48.520;-1.330;2023-12-20T15:39:44;100994.44;;;9.82;100.00
48796;BME280;34607;48.520;-1.330;2023-12-20T15:42:11;101030.44;;;10.03;100.00
48796;BME280;34607;48.520;-1.330;2023-12-20T15:44:38;101034.75;;;10.04;100.00
48796;BME280;34607;48.520;-1.330;2023-12-20T15:47:05;101036.53;;;10.05;100.00
48796;BME280;34607;48.520;-1.330;2023-12-20T15:49:32;101008.84;;;10.02;100.00
48796;BME280;34607;48.520;-1.330;2023-12-20T15:51:59;101018.38;;;10.03;100.00
48796;BME280;34607;48.520;-1.330;2023-12-20T15:54:27;101015.63;;;9.99;100.00
48796;BME280;34607;48.520;-1.330;2023-12-20T15:56:54;101000.13;;;9.99;100.00
48796;BME280;34607;48.520;-1.330;2023-12-20T15:59:21;101010.47;;;9.99;100.00
48796;BME280;34607;48.520;-1.330;2023-12-20T16:01:48;101032.06;;;9.99;100.00
48796;BME280;34607;48.520;-1.330;2023-12-20T16:04:15;101035.47;;;9.98;100.00
48796;BME280;34607;48.520;-1.330;2023-12-20T16:06:43;101025.13;;;9.98;100.00
48796;BME280;34607;48.520;-1.330;2023-12-20T16:09:10;101019.81;;;9.93;100.00
48796;BME280;34607;48.520;-1.330;2023-12-20T16:11:39;101012.03;;;9.93;100.00
48796;BME280;34607;48.520;-1.330;2023-12-20T16:14:08;101019.91;;;9.97;100.00
48796;BME280;34607;48.520;-1.330;2023-12-20T16:16:38;101015.53;;;9.94;100.00
48796;BME280;34607;48.520;-1.330;2023-12-20T16:19:06;101010.31;;;9.92;100.00
48796;BME280;34607;48.520;-1.330;2023-12-20T16:21:32;101011.22;;;9.94;100.00
48796;BME280;34607;48.520;-1.330;2023-12-20T16:24:00;100997.47;;;9.97;100.00
48796;BME280;34607;48.520;-1.330;2023-12-20T16:26:27;101005.28;;;9.99;100.00
48796;BME280;34607;48.520;-1.330;2023-12-20T16:28:56;100996.63;;;9.97;100.00
48796;BME280;34607;48.520;-1.330;2023-12-20T16:31:23;100988.03;;;9.98;100.00
48796;BME280;34607;48.520;-1.330;2023-12-20T16:33:50;100987.13;;;9.96;100.00
48796;BME280;34607;48.520;-1.330;2023-12-20T16:36:17;100990.53;;;9.94;100.00
48796;BME280;34607;48.520;-1.330;2023-12-20T16:38:44;100985.34;;;9.94;100.00
48796;BME280;34607;48.520;-1.330;2023-12-20T16:41:11;100975.06;;;9.96;100.00
48796;BME280;34607;48.520;-1.330;2023-12-20T16:43:38;100974.13;;;9.94;100.00
48796;BME280;34607;48.520;-1.330;2023-12-20T16:46:06;100980.13;;;9.93;100.00
48796;BME280;34607;48.520;-1.330;2023-12-20T16:48:33;100961.00;;;9.88;100.00
48796;BME280;34607;48.520;-1.330;2023-12-20T16:51:01;100956.91;;;9.94;100.00
48796;BME280;34607;48.520;-1.330;2023-12-20T16:53:28;100940.22;;;9.85;100.00
48796;BME280;34607;48.520;-1.330;2023-12-20T16:55:55;100956.81;;;9.91;100.00
48796;BME280;34607;48.520;-1.330;2023-12-20T16:58:22;100962.94;;;9.95;100.00
48796;BME280;34607;48.520;-1.330;2023-12-20T17:00:49;100972.47;;;9.96;100.00
48796;BME280;34607;48.520;-1.330;2023-12-20T17:03:18;100973.19;;;9.92;100.00
48796;BME280;34607;48.520;-1.330;2023-12-20T17:05:46;100946.09;;;9.79;100.00
48796;BME280;34607;48.520;-1.330;2023-12-20T17:08:13;100980.22;;;9.96;100.00
48796;BME280;34607;48.520;-1.330;2023-12-20T17:10:40;100969.91;;;9.98;100.00
48796;BME280;34607;48.520;-1.330;2023-12-20T17:13:07;100973.38;;;9.98;100.00
48796;BME280;34607;48.520;-1.330;2023-12-20T17:15:34;100971.44;;;9.91;100.00
48796;BME280;34607;48.520;-1.330;2023-12-20T17:18:01;100957.72;;;9.93;100.00
48796;BME280;34607;48.520;-1.330;2023-12-20T17:20:32;100949.94;;;9.93;100.00
48796;BME280;34607;48.520;-1.330;2023-12-20T17:22:59;100946.41;;;9.90;100.00
48796;BME280;34607;48.520;-1.330;2023-12-20T17:25:26;100939.59;;;9.93;100.00
48796;BME280;34607;48.520;-1.330;2023-12-20T17:27:53;100931.78;;;9.90;100.00
48796;BME280;34607;48.520;-1.330;2023-12-20T17:30:21;100904.22;;;9.62;100.00
48796;BME280;34607;48.520;-1.330;2023-12-20T17:32:48;100954.97;;;9.87;100.00
48796;BME280;34607;48.520;-1.330;2023-12-20T17:35:16;100966.19;;;9.88;100.00
48796;BME280;34607;48.520;-1.330;2023-12-20T17:37:45;100977.25;;;9.82;100.00
48796;BME280;34607;48.520;-1.330;2023-12-20T17:40:12;100982.38;;;9.81;100.00
48796;BME280;34607;48.520;-1.330;2023-12-20T17:42:40;100983.94;;;9.75;100.00
48796;BME280;34607;48.520;-1.330;2023-12-20T17:45:07;100975.00;;;9.66;100.00
48796;BME280;34607;48.520;-1.330;2023-12-20T17:47:34;100980.22;;;9.38;100.00
48796;BME280;34607;48.520;-1.330;2023-12-20T17:50:01;100990.38;;;9.32;100.00
48796;BME280;34607;48.520;-1.330;2023-12-20T17:52:29;100971.38;;;9.32;100.00
48796;BME280;34607;48.520;-1.330;2023-12-20T17:54:57;100973.06;;;9.30;100.00
48796;BME280;34607;48.520;-1.330;2023-12-20T17:57:24;100970.94;;;9.18;100.00
48796;BME280;34607;48.520;-1.330;2023-12-20T17:59:51;100955.72;;;9.26;100.00
48796;BME280;34607;48.520;-1.330;2023-12-20T18:02:18;100948.13;;;9.32;100.00
48796;BME280;34607;48.520;-1.330;2023-12-20T18:04:45;100953.59;;;9.41;100.00
48796;BME280;34607;48.520;-1.330;2023-12-20T18:07:13;100948.53;;;9.46;100.00
48796;BME280;34607;48.520;-1.330;2023-12-20T18:09:40;100933.94;;;9.46;100.00
48796;BME280;34607;48.520;-1.330;2023-12-20T18:12:08;100936.63;;;9.49;100.00
48796;BME280;34607;48.520;-1.330;2023-12-20T18:14:36;100929.88;;;9.54;100.00
48796;BME280;34607;48.520;-1.330;2023-12-20T18:17:03;100938.56;;;9.56;100.00
48796;BME280;34607;48.520;-1.330;2023-12-20T18:19:30;100947.94;;;9.53;100.00
48796;BME280;34607;48.520;-1.330;2023-12-20T18:21:57;100951.28;;;9.50;100.00
48796;BME280;34607;48.520;-1.330;2023-12-20T18:24:24;100954.72;;;9.51;100.00
48796;BME280;34607;48.520;-1.330;2023-12-20T18:26:52;100955.63;;;9.51;100.00
48796;BME280;34607;48.520;-1.330;2023-12-20T18:29:20;100948.78;;;9.53;100.00
48796;BME280;34607;48.520;-1.330;2023-12-20T18:31:47;100935.63;;;9.46;100.00
48796;BME280;34607;48.520;-1.330;2023-12-20T18:34:14;100945.50;;;9.59;100.00
48796;BME280;34607;48.520;-1.330;2023-12-20T18:36:41;100944.63;;;9.59;100.00
48796;BME280;34607;48.520;-1.330;2023-12-20T18:39:09;100948.94;;;9.58;100.00
48796;BME280;34607;48.520;-1.330;2023-12-20T18:41:36;100933.47;;;9.60;100.00
48796;BME280;34607;48.520;-1.330;2023-12-20T18:44:05;100935.41;;;9.67;100.00
48796;BME280;34607;48.520;-1.330;2023-12-20T18:46:33;100935.22;;;9.61;100.00
48796;BME280;34607;48.520;-1.330;2023-12-20T18:49:00;100938.66;;;9.60;100.00
48796;BME280;34607;48.520;-1.330;2023-12-20T18:51:27;100940.34;;;9.59;100.00
48796;BME280;34607;48.520;-1.330;2023-12-20T18:53:54;100929.22;;;9.62;100.00
48796;BME280;34607;48.520;-1.330;2023-12-20T18:56:21;100914.47;;;9.59;100.00
48796;BME280;34607;48.520;-1.330;2023-12-20T18:58:48;100913.56;;;9.57;100.00
48796;BME280;34607;48.520;-1.330;2023-12-20T19:01:16;100917.97;;;9.61;100.00
48796;BME280;34607;48.520;-1.330;2023-12-20T19:03:44;100906.88;;;9.64;100.00
48796;BME280;34607;48.520;-1.330;2023-12-20T19:06:11;100906.03;;;9.65;100.00
48796;BME280;34607;48.520;-1.330;2023-12-20T19:08:38;100910.41;;;9.67;100.00
48796;BME280;34607;48.520;-1.330;2023-12-20T19:11:07;100912.94;;;9.66;100.00
48796;BME280;34607;48.520;-1.330;2023-12-20T19:13:34;100907.69;;;9.63;100.00
48796;BME280;34607;48.520;-1.330;2023-12-20T19:16:01;100909.41;;;9.62;100.00
48796;BME280;34607;48.520;-1.330;2023-12-20T19:18:28;100928.22;;;9.56;100.00
48796;BME280;34607;48.520;-1.330;2023-12-20T19:20:57;100923.22;;;9.34;100.00
48796;BME280;34607;48.520;-1.330;2023-12-20T19:23:24;100918.97;;;9.36;100.00
48796;BME280;34607;48.520;-1.330;2023-12-20T19:25:53;100935.56;;;9.43;100.00
48796;BME280;34607;48.520;-1.330;2023-12-20T19:28:20;100926.09;;;9.43;100.00
48796;BME280;34607;48.520;-1.330;2023-12-20T19:30:47;100910.56;;;9.43;100.00
48796;BME280;34607;48.520;-1.330;2023-12-20T19:33:14;100922.13;;;9.56;100.00
48796;BME280;34607;48.520;-1.330;2023-12-20T19:35:41;100913.47;;;9.54;100.00
48796;BME280;34607;48.520;-1.330;2023-12-20T19:38:10;100921.47;;;9.62;100.00
48796;BME280;34607;48.520;-1.330;2023-12-20T19:40:37;100919.59;;;9.57;100.00
48796;BME280;34607;48.520;-1.330;2023-12-20T19:43:04;100923.13;;;9.60;100.00
48796;BME280;34607;48.520;-1.330;2023-12-20T19:45:34;100899.63;;;9.52;100.00
48796;BME280;34607;48.520;-1.330;2023-12-20T19:48:01;100908.41;;;9.57;100.00
48796;BME280;34607;48.520;-1.330;2023-12-20T19:50:28;100916.19;;;9.59;100.00
48796;BME280;34607;48.520;-1.330;2023-12-20T19:52:55;100916.94;;;9.54;100.00
48796;BME280;34607;48.520;-1.330;2023-12-20T19:55:23;100898.75;;;9.51;100.00
48796;BME280;34607;48.520;-1.330;2023-12-20T19:57:50;100904.03;;;9.56;100.00
48796;BME280;34607;48.520;-1.330;2023-12-20T20:00:19;100894.59;;;9.56;100.00
48796;BME280;34607;48.520;-1.330;2023-12-20T20:02:46;100903.19;;;9.55;100.00
48796;BME280;34607;48.520;-1.330;2023-12-20T20:05:13;100892.78;;;9.54;100.00
48796;BME280;34607;48.520;-1.330;2023-12-20T20:07:40;100891.97;;;9.55;100.00
48796;BME280;34607;48.520;-1.330;2023-12-20T20:10:08;100897.19;;;9.56;100.00
48796;BME280;34607;48.520;-1.330;2023-12-20T20:12:37;100885.13;;;9.57;100.00
48796;BME280;34607;48.520;-1.330;2023-12-20T20:15:05;100871.13;;;9.50;100.00
48796;BME280;34607;48.520;-1.330;2023-12-20T20:17:32;100881.47;;;9.50;100.00
48796;BME280;34607;48.520;-1.330;2023-12-20T20:19:59;100867.72;;;9.51;100.00
48796;BME280;34607;48.520;-1.330;2023-12-20T20:22:26;100857.41;;;9.51;100.00
48796;BME280;34607;48.520;-1.330;2023-12-20T20:24:53;100857.41;;;9.51;100.00
48796;BME280;34607;48.520;-1.330;2023-12-20T20:27:20;100859.97;;;9.51;100.00
48796;BME280;34607;48.520;-1.330;2023-12-20T20:29:49;100844.41;;;9.50;100.00
48796;BME280;34607;48.520;-1.330;2023-12-20T20:32:16;100859.06;;;9.49;100.00
48796;BME280;34607;48.520;-1.330;2023-12-20T20:34:43;100822.44;;;9.35;100.00
48796;BME280;34607;48.520;-1.330;2023-12-20T20:37:11;100846.16;;;9.49;100.00
48796;BME280;34607;48.520;-1.330;2023-12-20T20:39:38;100840.97;;;9.49;100.00